Time;durP1;ratioP1;P1;durP2;ratioP2;P2;SDS_P1;SDS_P2;PMS_P1;PMS_P2;Temp;Humidity;BMP_temperature;BMP_pressure;BME280_temperature;BME280_humidity;BME280_pressure;Samples;Min_cycle;Max_cycle;Signal;HPM_P1;HPM_P2
2021/04/30 00:01:39;;;;;;;8.88;5.53;;;;;;;11.96;73.34;99283.32;2718153;87;21639;-60
2021/04/30 00:05:42;;;;;;;6.37;4.58;;;;;;;11.89;72.94;99284.48;2718445;87;21149;-60
2021/04/30 00:09:45;;;;;;;9.73;6.25;;;;;;;11.65;73.29;99291.83;2718550;87;21161;-60
2021/04/30 00:13:48;;;;;;;10.05;6.97;;;;;;;11.46;74.51;99293.71;2718477;87;21137;-60
2021/04/30 00:17:51;;;;;;;8.25;5.78;;;;;;;11.47;75.01;99307.84;2718391;87;21174;-61
2021/04/30 00:21:59;;;;;;;7.22;6.42;;;;;;;11.50;74.79;99306.23;2718716;87;21160;-60
2021/04/30 00:26:07;;;;;;;11.25;5.75;;;;;;;11.50;74.74;99308.89;2718338;87;21137;-61
2021/04/30 00:30:14;;;;;;;8.45;6.12;;;;;;;11.55;74.42;99319.39;2718983;87;21121;-60
2021/04/30 00:34:17;;;;;;;13.60;7.72;;;;;;;11.55;74.13;99315.91;2718321;87;21151;-60
2021/04/30 00:38:20;;;;;;;12.53;8.80;;;;;;;11.54;73.87;99316.91;2718430;87;21166;-60
2021/04/30 00:42:25;;;;;;;11.70;7.03;;;;;;;11.51;73.53;99323.36;2718335;87;21156;-60
2021/04/30 00:46:27;;;;;;;11.00;7.33;;;;;;;11.48;73.30;99331.67;2718715;87;21134;-60
2021/04/30 00:50:35;;;;;;;10.13;7.40;;;;;;;11.45;74.07;99331.98;2718632;87;21181;-60
2021/04/30 00:54:38;;;;;;;8.10;6.83;;;;;;;11.40;74.58;99344.94;2718180;87;21158;-59
2021/04/30 00:58:42;;;;;;;12.75;9.08;;;;;;;11.33;75.16;99346.52;2718351;87;21205;-60
2021/04/30 01:02:45;;;;;;;10.40;8.20;;;;;;;11.12;74.94;99343.69;2718123;87;21188;-60
2021/04/30 01:06:48;;;;;;;6.85;6.05;;;;;;;11.00;75.19;99349.73;2720402;86;21129;-60
2021/04/30 01:10:50;;;;;;;10.82;7.83;;;;;;;10.76;74.51;99347.17;2679932;88;21570;-60
2021/04/30 01:14:53;;;;;;;9.00;7.20;;;;;;;10.16;75.39;99353.75;2722626;86;21176;-60
2021/04/30 01:18:56;;;;;;;11.90;7.97;;;;;;;9.74;77.00;99360.81;2705482;87;21108;-60
2021/04/30 01:22:59;;;;;;;10.88;7.58;;;;;;;9.50;77.70;99357.62;2725959;87;21136;-60
2021/04/30 01:27:04;;;;;;;9.93;7.03;;;;;;;9.43;78.03;99357.34;2725988;87;21180;-60
2021/04/30 01:31:07;;;;;;;10.00;7.28;;;;;;;9.42;78.09;99364.11;2725807;87;21606;-60
2021/04/30 01:35:13;;;;;;;8.95;7.35;;;;;;;9.37;78.28;99371.20;2725778;87;21591;-60
2021/04/30 01:39:17;;;;;;;10.20;5.42;;;;;;;9.34;78.34;99382.09;2689738;87;21153;-59
2021/04/30 01:43:21;;;;;;;8.73;6.12;;;;;;;9.28;78.11;99388.80;2682254;88;21189;-60
2021/04/30 01:47:24;;;;;;;10.10;7.60;;;;;;;9.21;78.42;99390.31;2682361;88;21502;-60
2021/04/30 01:51:27;;;;;;;10.68;7.47;;;;;;;9.24;78.68;99395.37;2682070;88;21192;-60
2021/04/30 01:55:31;;;;;;;6.95;5.25;;;;;;;9.36;78.42;99400.52;2682082;88;21157;-60
2021/04/30 01:59:34;;;;;;;6.55;5.33;;;;;;;9.44;78.12;99398.02;2682304;88;21235;-60
2021/04/30 02:03:38;;;;;;;6.70;6.05;;;;;;;9.48;78.65;99405.19;2682324;88;21184;-60
2021/04/30 02:07:41;;;;;;;7.08;6.37;;;;;;;9.52;79.17;99406.11;2679302;88;21161;-60
2021/04/30 02:11:44;;;;;;;8.75;6.72;;;;;;;9.66;79.46;99402.68;2675098;88;21173;-60
2021/04/30 02:15:51;;;;;;;10.00;6.22;;;;;;;9.77;78.09;99410.98;2693584;87;21157;-60
2021/04/30 02:19:54;;;;;;;7.83;6.00;;;;;;;9.60;77.59;99407.20;2718154;87;21161;-60
2021/04/30 02:23:57;;;;;;;6.45;5.70;;;;;;;9.40;78.67;99409.39;2718177;87;21539;-60
2021/04/30 02:28:02;;;;;;;13.25;7.53;;;;;;;9.28;79.52;99408.70;2718447;87;21188;-60
2021/04/30 02:32:06;;;;;;;9.58;7.75;;;;;;;9.17;81.20;99400.86;2718310;87;21177;-60
2021/04/30 02:36:11;;;;;;;10.60;7.17;;;;;;;9.10;81.34;99406.37;2718405;87;21201;-59
2021/04/30 02:40:16;;;;;;;11.43;8.33;;;;;;;9.11;81.51;99409.38;2718168;87;21118;-60
2021/04/30 02:44:19;;;;;;;7.65;6.83;;;;;;;9.20;80.88;99417.82;2714329;87;21631;-60
2021/04/30 02:48:36;;;;;;;11.57;8.33;;;;;;;9.20;80.39;99424.45;2703204;87;21217;-60
2021/04/30 02:52:38;;;;;;;11.53;7.90;;;;;;;9.20;80.64;99423.64;2672212;87;21150;-60
2021/04/30 03:00:58;;;;;;;14.40;9.78;;;;;;;9.27;80.71;99434.03;2829415;83;21110;-60
2021/04/30 03:05:01;;;;;;;12.63;8.95;;;;;;;9.31;80.62;99439.91;2756173;86;21145;-60
2021/04/30 03:09:04;;;;;;;11.25;9.93;;;;;;;9.32;80.16;99446.39;2785120;85;21607;-61
2021/04/30 03:13:07;;;;;;;13.15;9.63;;;;;;;9.38;79.63;99450.31;2776713;85;21589;-60
2021/04/30 03:17:12;;;;;;;12.18;9.43;;;;;;;9.49;78.86;99454.18;2785186;85;21136;-61
2021/04/30 03:21:17;;;;;;;10.98;8.73;;;;;;;9.55;78.41;99464.23;2785419;85;21127;-60
2021/04/30 03:25:21;;;;;;;9.85;7.67;;;;;;;9.52;78.33;99468.97;2785009;85;21109;-59
2021/04/30 03:29:24;;;;;;;11.88;8.43;;;;;;;9.48;78.32;99479.05;2784821;85;21129;-60
2021/04/30 03:33:28;;;;;;;12.07;8.10;;;;;;;9.45;78.23;99481.98;2785235;85;21145;-59
2021/04/30 03:37:31;;;;;;;10.32;7.65;;;;;;;9.34;78.04;99502.00;2784344;85;21141;-60
2021/04/30 03:41:36;;;;;;;13.10;10.00;;;;;;;9.21;78.48;99507.06;2832472;84;21190;-60
2021/04/30 03:45:39;;;;;;;12.33;9.58;;;;;;;9.17;78.52;99508.83;2833025;84;21654;-59
2021/04/30 03:49:42;;;;;;;16.05;9.85;;;;;;;9.14;78.52;99503.29;2782883;85;21131;-59
2021/04/30 03:53:45;;;;;;;17.42;11.00;;;;;;;9.14;78.60;99504.62;2819252;84;21164;-59
2021/04/30 03:57:48;;;;;;;13.20;10.88;;;;;;;9.21;78.44;99507.06;2733632;86;21186;-59
2021/04/30 04:01:51;;;;;;;14.40;11.10;;;;;;;9.29;78.41;99502.41;2748850;84;21149;-60
2021/04/30 04:05:55;;;;;;;12.93;9.43;;;;;;;9.45;78.38;99512.52;2739676;87;21161;-60
2021/04/30 04:09:58;;;;;;;13.95;11.10;;;;;;;10.06;77.48;99526.50;2806801;83;21144;-60
2021/04/30 04:14:02;;;;;;;14.47;10.60;;;;;;;10.74;74.53;99527.38;2809224;84;21191;-60
2021/04/30 04:18:05;;;;;;;16.05;11.45;;;;;;;11.04;71.52;99524.59;2772191;84;21122;-63
2021/04/30 04:22:08;;;;;;;12.35;9.58;;;;;;;11.00;70.94;99531.54;2762627;86;21116;-60
2021/04/30 04:26:11;;;;;;;14.43;10.28;;;;;;;11.17;71.20;99529.05;2798796;83;21145;-61
2021/04/30 04:30:37;;;;;;;11.22;10.13;;;;;;;11.61;69.10;99543.53;2808885;84;21124;-60
2021/04/30 04:34:40;;;;;;;12.40;10.25;;;;;;;11.53;67.01;99542.95;2743664;86;21137;-62
2021/04/30 04:38:43;;;;;;;14.75;11.97;;;;;;;11.67;67.57;99544.24;2766717;86;21136;-61
2021/04/30 04:42:47;;;;;;;15.98;11.88;;;;;;;12.05;66.70;99550.29;2734650;87;21195;-62
2021/04/30 04:46:49;;;;;;;19.00;11.75;;;;;;;12.52;66.42;99557.63;2766823;85;21594;-61
2021/04/30 04:50:52;;;;;;;18.12;13.03;;;;;;;12.94;64.88;99574.23;2721831;86;21183;-61
2021/04/30 04:54:57;;;;;;;17.50;12.58;;;;;;;13.42;64.56;99572.45;2766504;86;21177;-61
2021/04/30 04:59:02;;;;;;;17.73;11.88;;;;;;;13.70;62.76;99577.55;2767322;85;21120;-61
2021/04/30 05:03:06;;;;;;;14.93;12.30;;;;;;;13.81;62.30;99585.27;2732728;87;21160;-61
2021/04/30 05:07:09;;;;;;;30.55;13.98;;;;;;;13.96;61.07;99581.95;2737174;87;21145;-61
2021/04/30 05:11:12;;;;;;;15.23;13.62;;;;;;;14.07;61.03;99580.28;2737332;86;22344;-61
2021/04/30 05:15:16;;;;;;;18.62;12.58;;;;;;;14.28;60.83;99586.48;2737279;87;21145;-61
2021/04/30 05:19:19;;;;;;;23.80;15.03;;;;;;;14.36;58.94;99588.33;2737207;86;21152;-61
2021/04/30 05:23:24;;;;;;;17.85;13.28;;;;;;;14.16;59.29;99589.66;2737251;87;21165;-61
2021/04/30 05:27:27;;;;;;;16.00;11.78;;;;;;;14.08;58.97;99589.97;2737203;87;21161;-61
2021/04/30 05:31:29;;;;;;;14.85;11.40;;;;;;;13.96;59.25;99594.81;2743906;85;21137;-61
2021/04/30 05:35:33;;;;;;;14.23;10.78;;;;;;;14.06;59.04;99598.66;2774051;85;21598;-61
2021/04/30 05:39:37;;;;;;;15.78;12.68;;;;;;;14.25;58.51;99598.86;2774091;85;21144;-61
2021/04/30 05:43:40;;;;;;;13.83;11.28;;;;;;;14.44;59.06;99592.81;2774159;85;21156;-62
2021/04/30 05:47:44;;;;;;;16.10;12.85;;;;;;;14.41;58.28;99597.16;2773923;85;21567;-61
2021/04/30 05:51:47;;;;;;;14.07;11.90;;;;;;;14.44;58.12;99598.16;2774050;85;21121;-61
2021/04/30 05:55:50;;;;;;;14.43;12.93;;;;;;;14.56;57.71;99602.70;2774166;85;21137;-62
2021/04/30 05:59:53;;;;;;;12.88;11.18;;;;;;;14.58;57.68;99606.04;2773942;85;21148;-62
2021/04/30 06:03:57;;;;;;;15.10;13.58;;;;;;;14.56;58.62;99599.50;2774182;85;21622;-62
2021/04/30 06:08:00;;;;;;;15.20;11.12;;;;;;;14.50;58.44;99596.17;2774533;85;21125;-62
2021/04/30 06:12:06;;;;;;;13.40;11.73;;;;;;;14.23;57.92;99609.38;2774125;85;21571;-61
2021/04/30 06:16:09;;;;;;;13.93;12.45;;;;;;;14.04;56.91;99606.02;2774304;85;21148;-61
2021/04/30 06:20:14;;;;;;;14.98;11.68;;;;;;;13.96;58.11;99610.03;2774158;85;21160;-62
2021/04/30 06:24:19;;;;;;;11.80;10.50;;;;;;;14.06;57.53;99605.88;2773865;85;21137;-62
2021/04/30 06:28:22;;;;;;;17.50;11.15;;;;;;;14.06;57.25;99621.39;2774049;85;21208;-62
2021/04/30 06:32:25;;;;;;;13.70;11.08;;;;;;;14.17;57.50;99607.38;2772035;85;21600;-62
2021/04/30 06:36:28;;;;;;;14.95;10.75;;;;;;;14.25;55.76;99610.05;2768513;85;21188;-62
2021/04/30 06:40:32;;;;;;;12.33;9.25;;;;;;;14.34;57.38;99622.92;2768422;86;21172;-62
2021/04/30 06:44:36;;;;;;;13.78;9.90;;;;;;;14.32;56.14;99624.42;2768425;85;21173;-62
2021/04/30 06:48:41;;;;;;;11.60;8.78;;;;;;;14.30;56.10;99635.80;2768272;86;21129;-63
2021/04/30 06:52:45;;;;;;;11.55;10.08;;;;;;;14.37;56.10;99643.51;2768421;85;21145;-62
2021/04/30 06:56:48;;;;;;;11.20;9.05;;;;;;;14.50;55.78;99634.97;2768303;86;21200;-62
2021/04/30 07:00:51;;;;;;;15.38;10.45;;;;;;;14.69;55.86;99638.31;2768344;86;21117;-62
2021/04/30 07:04:57;;;;;;;14.33;10.95;;;;;;;14.71;56.54;99638.48;2768606;85;21157;-62
2021/04/30 07:09:15;;;;;;;12.88;10.85;;;;;;;14.79;55.85;99652.89;2724113;87;21195;-62
2021/04/30 07:13:20;;;;;;;10.18;8.05;;;;;;;14.55;55.30;99657.23;2724480;87;21663;-62
2021/04/30 07:17:23;;;;;;;10.00;8.70;;;;;;;14.50;55.38;99666.23;2724535;87;21158;-62
2021/04/30 07:21:26;;;;;;;10.82;8.23;;;;;;;14.45;55.71;99656.05;2724495;87;21146;-62
2021/04/30 07:25:30;;;;;;;13.32;9.05;;;;;;;14.47;55.65;99652.70;2724333;87;21246;-62
2021/04/30 07:29:34;;;;;;;12.35;9.88;;;;;;;14.30;55.56;99658.53;2724643;86;21158;-62
2021/04/30 07:33:43;;;;;;;23.45;11.00;;;;;;;14.19;56.10;99665.03;2759115;84;21125;-62
2021/04/30 07:37:42;;;;;;;11.78;9.50;;;;;;;14.25;57.26;99664.88;2774004;85;21118;-62
2021/04/30 07:41:46;;;;;;;12.50;10.75;;;;;;;14.60;56.07;99667.41;2774030;85;21172;-62
2021/04/30 07:45:49;;;;;;;9.78;8.80;;;;;;;14.77;56.30;99671.79;2774241;85;21157;-62
2021/04/30 07:49:53;;;;;;;10.48;8.80;;;;;;;14.88;56.27;99662.58;2774143;85;21161;-62
2021/04/30 07:53:56;;;;;;;11.38;8.85;;;;;;;14.96;54.71;99666.59;2773953;85;21121;-62
2021/04/30 07:57:59;;;;;;;12.50;7.47;;;;;;;14.95;53.98;99671.63;2774249;85;21633;-62
2021/04/30 08:02:04;;;;;;;9.23;8.33;;;;;;;15.02;54.91;99680.30;2773904;85;21163;-62
2021/04/30 08:06:08;;;;;;;9.45;8.45;;;;;;;15.08;56.22;99666.22;2774122;85;21101;-62
2021/04/30 08:10:12;;;;;;;9.10;7.58;;;;;;;15.15;56.06;99667.23;2774050;85;21168;-62
2021/04/30 08:14:18;;;;;;;13.48;7.78;;;;;;;15.18;54.86;99676.75;2774104;85;21108;-61
2021/04/30 08:18:21;;;;;;;8.53;7.65;;;;;;;14.88;53.82;99682.66;2773939;85;22153;-62
2021/04/30 08:22:27;;;;;;;14.65;9.00;;;;;;;14.86;55.66;99698.05;2773905;85;21138;-62
2021/04/30 08:26:31;;;;;;;36.27;14.10;;;;;;;14.99;56.10;99694.38;2774167;85;21659;-62
2021/04/30 08:30:36;;;;;;;9.90;8.43;;;;;;;14.87;55.35;99694.38;2773862;85;21607;-61
2021/04/30 08:34:39;;;;;;;9.13;8.23;;;;;;;14.99;55.50;99697.05;2774097;85;21161;-62
2021/04/30 08:38:45;;;;;;;24.55;10.78;;;;;;;14.81;54.20;99684.34;2773883;85;21109;-62
2021/04/30 08:42:51;;;;;;;9.88;8.80;;;;;;;14.82;57.22;99691.38;2774139;85;21176;-62
2021/04/30 08:46:54;;;;;;;18.02;11.15;;;;;;;15.19;57.14;99687.31;2774145;85;21140;-62
2021/04/30 08:50:57;;;;;;;22.55;9.70;;;;;;;15.51;56.08;99689.55;2774276;85;21105;-62
2021/04/30 08:55:06;;;;;;;9.18;8.00;;;;;;;15.58;54.14;99688.36;2774426;85;21185;-62
2021/04/30 08:59:06;;;;;;;;;;;;;;;15.43;54.03;99700.30;2776510;85;21563;-62
2021/04/30 09:03:11;;;;;;;12.33;8.98;;;;;;;15.26;54.99;99705.70;2774013;85;20516;-62
2021/04/30 09:07:24;;;;;;;14.10;8.10;;;;;;;15.15;54.38;99704.73;2774272;85;21121;-62
2021/04/30 09:11:32;;;;;;;7.83;6.90;;;;;;;15.17;55.45;99705.40;2774183;85;21128;-62
2021/04/30 09:15:37;;;;;;;9.95;7.92;;;;;;;15.36;55.25;99702.83;2774394;85;21141;-62
2021/04/30 09:19:56;;;;;;;8.88;7.80;;;;;;;15.15;54.71;99707.41;2774237;85;21141;-62
2021/04/30 09:23:59;;;;;;;10.78;8.93;;;;;;;14.81;55.82;99717.81;2774026;85;21113;-63
2021/04/30 09:28:04;;;;;;;14.60;9.85;;;;;;;14.78;57.19;99719.49;2774253;85;21551;-62
2021/04/30 09:32:11;;;;;;;9.00;7.03;;;;;;;14.76;56.91;99727.67;2765907;85;21113;-63
2021/04/30 09:36:14;;;;;;;10.25;7.35;;;;;;;14.87;57.16;99708.28;2768983;86;21125;-62
2021/04/30 09:40:19;;;;;;;10.38;7.55;;;;;;;15.16;56.67;99706.41;2768558;85;21148;-62
2021/04/30 09:44:38;;;;;;;57.83;16.27;;;;;;;15.50;57.46;99703.95;2768460;86;21133;-62
2021/04/30 09:49:04;;;;;;;10.30;7.20;;;;;;;15.83;53.95;99707.86;2768614;85;21614;-62
2021/04/30 09:53:12;;;;;;;10.40;6.25;;;;;;;15.96;54.06;99703.83;2766596;85;21169;-62
2021/04/30 09:57:23;;;;;;;8.58;6.05;;;;;;;15.85;54.07;99697.80;2768699;86;21567;-63
2021/04/30 10:01:28;;;;;;;5.85;5.35;;;;;;;15.94;55.67;99700.48;2768758;86;21139;-63
2021/04/30 10:05:32;;;;;;;7.72;6.15;;;;;;;15.82;53.41;99692.78;2768753;86;21160;-62
2021/04/30 10:09:38;;;;;;;8.65;6.65;;;;;;;15.80;53.86;99696.16;2768882;85;21228;-62
2021/04/30 10:13:41;;;;;;;9.75;6.75;;;;;;;15.92;55.04;99705.20;2768560;85;21650;-63
2021/04/30 10:17:46;;;;;;;7.95;6.72;;;;;;;15.98;54.71;99699.13;2768751;85;21567;-63
2021/04/30 10:21:50;;;;;;;6.92;5.47;;;;;;;16.01;53.14;99700.59;2769087;85;21137;-62
2021/04/30 10:25:53;;;;;;;8.25;7.25;;;;;;;15.99;54.31;99698.11;2769200;86;21172;-63
2021/04/30 10:30:24;;;;;;;7.33;6.17;;;;;;;16.07;54.73;99704.76;2769008;85;21590;-63
2021/04/30 10:34:30;;;;;;;6.00;5.45;;;;;;;16.04;53.97;99723.07;2768673;85;21212;-63
2021/04/30 10:38:43;;;;;;;10.00;5.97;;;;;;;16.11;54.51;99712.81;2768878;85;21126;-63
2021/04/30 10:42:46;;;;;;;8.93;7.53;;;;;;;16.15;53.37;99723.18;2768802;85;21164;-62
2021/04/30 10:46:53;;;;;;;18.00;7.28;;;;;;;16.01;54.75;99691.20;2768840;85;21173;-62
2021/04/30 10:51:16;;;;;;;10.50;5.85;;;;;;;16.07;53.79;99691.86;2768992;86;21149;-62
2021/04/30 10:55:20;;;;;;;6.72;6.05;;;;;;;16.06;54.84;99679.47;2768831;86;21140;-61
2021/04/30 10:59:29;;;;;;;7.40;6.50;;;;;;;15.99;53.42;99688.72;2769445;86;21145;-61
2021/04/30 11:03:32;;;;;;;8.68;7.60;;;;;;;16.07;55.14;99708.78;2768924;86;21167;-62
2021/04/30 11:07:49;;;;;;;9.90;6.97;;;;;;;16.20;54.27;99716.77;2768781;85;21150;-62
2021/04/30 11:11:54;;;;;;;9.75;8.38;;;;;;;16.03;54.62;99714.70;2768995;85;21174;-62
2021/04/30 11:16:00;;;;;;;7.97;7.17;;;;;;;16.01;53.96;99717.54;2768758;85;21157;-63
2021/04/30 11:20:17;;;;;;;14.28;7.30;;;;;;;15.90;53.17;99706.70;2768986;85;21118;-62
2021/04/30 11:24:41;;;;;;;7.97;7.17;;;;;;;15.96;53.37;99695.78;2768519;86;21128;-62
2021/04/30 11:28:56;;;;;;;7.47;6.55;;;;;;;15.94;52.09;99706.67;2768856;86;21124;-63
2021/04/30 11:33:00;;;;;;;8.38;6.45;;;;;;;16.06;54.06;99709.80;2768033;85;21168;-62
2021/04/30 11:37:04;;;;;;;8.20;6.50;;;;;;;16.13;53.89;99712.61;2774498;85;21157;-62
2021/04/30 11:41:10;;;;;;;8.85;5.10;;;;;;;16.08;53.43;99697.03;2746146;85;21620;-62
2021/04/30 11:45:14;;;;;;;7.87;5.95;;;;;;;16.06;50.58;99685.65;2774640;85;21136;-62
2021/04/30 11:49:20;;;;;;;7.85;5.90;;;;;;;15.94;49.42;99691.10;2774364;85;21145;-62
2021/04/30 11:53:24;;;;;;;8.95;7.62;;;;;;;16.05;50.50;99700.08;2774676;85;21136;-62
2021/04/30 11:57:28;;;;;;;7.80;7.00;;;;;;;16.30;54.29;99702.60;2774751;85;21149;-62
2021/04/30 12:01:31;;;;;;;7.40;6.58;;;;;;;16.57;53.05;99705.80;2775029;85;21571;-62
2021/04/30 12:05:37;;;;;;;8.35;6.70;;;;;;;16.54;52.20;99703.47;2774712;85;21125;-62
2021/04/30 12:09:40;;;;;;;10.00;7.90;;;;;;;16.46;50.09;99708.88;2774818;85;21129;-62
2021/04/30 12:13:44;;;;;;;7.70;6.75;;;;;;;16.51;51.92;99702.49;2774688;85;21630;-62
2021/04/30 12:17:48;;;;;;;9.93;6.95;;;;;;;16.52;51.66;99694.77;2774734;85;21176;-62
2021/04/30 12:21:51;;;;;;;10.65;7.28;;;;;;;16.54;52.00;99699.45;2774705;85;21606;-62
2021/04/30 12:25:55;;;;;;;6.85;5.47;;;;;;;16.41;52.11;99694.16;2774658;85;21598;-62
2021/04/30 12:29:59;;;;;;;9.10;6.42;;;;;;;16.46;52.02;99696.80;2774869;85;21176;-63
2021/04/30 12:34:04;;;;;;;6.92;6.25;;;;;;;16.51;52.19;99693.09;2773248;85;21173;-63
2021/04/30 12:38:08;;;;;;;24.07;7.95;;;;;;;16.37;51.77;99695.53;2768900;86;22635;-62
2021/04/30 12:42:11;;;;;;;6.85;6.25;;;;;;;16.31;52.80;99684.67;2768879;86;21607;-62
2021/04/30 12:46:28;;;;;;;11.25;6.85;;;;;;;16.40;52.88;99694.31;2769038;85;21125;-63
2021/04/30 12:50:31;;;;;;;10.25;7.80;;;;;;;16.45;51.27;99694.64;2768937;86;21181;-62
2021/04/30 12:54:35;;;;;;;9.23;7.75;;;;;;;16.51;52.52;99686.38;2768969;85;21188;-63
2021/04/30 12:58:41;;;;;;;8.45;7.60;;;;;;;16.49;52.28;99693.27;2761209;86;21208;-62
2021/04/30 13:02:44;;;;;;;6.95;6.28;;;;;;;16.59;52.57;99694.36;2758288;86;21110;-62
2021/04/30 13:06:51;;;;;;;8.98;5.35;;;;;;;16.77;52.83;99687.33;2769124;86;31242;-61
2021/04/30 13:11:03;;;;;;;8.53;6.40;;;;;;;16.77;51.23;99690.53;2769392;86;21113;-60
2021/04/30 13:15:09;;;;;;;7.42;6.67;;;;;;;16.64;51.44;99682.56;2769449;85;21137;-60
2021/04/30 13:19:23;;;;;;;8.75;5.80;;;;;;;16.66;51.85;99700.67;2769790;86;21141;-58
2021/04/30 13:23:36;;;;;;;9.48;7.40;;;;;;;16.75;51.11;99695.25;2769527;86;21109;-58
2021/04/30 13:27:52;;;;;;;40.52;12.33;;;;;;;16.76;50.45;99704.98;2754456;84;21165;-59
2021/04/30 13:32:15;;;;;;;9.50;7.80;;;;;;;16.77;51.43;99706.65;2755343;86;21162;-59
2021/04/30 13:36:18;;;;;;;8.25;7.47;;;;;;;16.75;51.09;99697.41;2748996;86;21585;-60
2021/04/30 13:40:21;;;;;;;9.05;8.00;;;;;;;16.63;50.88;99692.16;2759188;86;21204;-60
2021/04/30 13:44:25;;;;;;;9.25;6.85;;;;;;;16.57;51.71;99680.29;2759268;86;21563;-59
2021/04/30 13:48:28;;;;;;;7.83;6.60;;;;;;;16.60;50.74;99678.58;2759174;86;21137;-60
2021/04/30 13:52:32;;;;;;;6.65;5.95;;;;;;;16.60;50.84;99677.23;2772427;84;21212;-60
2021/04/30 13:56:35;;;;;;;6.62;6.03;;;;;;;16.67;49.19;99675.48;2825782;84;21144;-61
2021/04/30 14:00:38;;;;;;;8.75;7.83;;;;;;;16.78;51.65;99678.25;2781551;85;21113;-60
2021/04/30 14:04:43;;;;;;;7.08;5.58;;;;;;;16.87;50.11;99678.19;2735341;87;21143;-60
2021/04/30 14:08:47;;;;;;;11.63;7.75;;;;;;;16.74;50.25;99672.10;2766715;85;21210;-60
2021/04/30 14:12:50;;;;;;;10.13;6.53;;;;;;;16.97;52.20;99676.91;2774049;85;21148;-60
2021/04/30 14:16:55;;;;;;;7.55;6.78;;;;;;;17.04;48.96;99689.64;2757823;85;21160;-60
2021/04/30 14:20:59;;;;;;;8.08;7.28;;;;;;;17.11;49.62;99707.53;2744415;85;21135;-60
2021/04/30 14:25:03;;;;;;;5.97;5.37;;;;;;;17.09;50.91;99709.58;2735504;85;21164;-60
2021/04/30 14:29:08;;;;;;;7.37;6.70;;;;;;;17.07;48.49;99713.45;2766762;85;21175;-60
2021/04/30 14:33:12;;;;;;;7.03;6.33;;;;;;;17.07;50.10;99721.52;2751419;85;21655;-60
2021/04/30 14:37:16;;;;;;;8.60;7.80;;;;;;;17.03;49.19;99713.49;2796274;85;21161;-60
2021/04/30 14:41:21;;;;;;;7.37;6.72;;;;;;;17.03;50.10;99710.31;2771299;85;21605;-61
2021/04/30 14:45:25;;;;;;;7.50;6.90;;;;;;;16.99;49.84;99731.33;2730396;87;21196;-60
2021/04/30 14:49:28;;;;;;;9.85;8.75;;;;;;;16.94;50.87;99716.23;2765675;85;21155;-60
2021/04/30 14:53:31;;;;;;;7.83;7.08;;;;;;;17.02;50.68;99710.48;2803330;85;21201;-61
2021/04/30 14:57:34;;;;;;;7.22;6.33;;;;;;;17.06;49.98;99712.63;2747699;86;21146;-61
2021/04/30 15:01:38;;;;;;;7.15;6.25;;;;;;;17.03;49.35;99725.58;2727482;87;21146;-61
2021/04/30 15:05:49;;;;;;;7.03;6.33;;;;;;;16.92;48.72;99723.64;2727401;86;21655;-61
2021/04/30 15:09:57;;;;;;;7.67;6.70;;;;;;;16.87;49.17;99719.30;2734639;84;21185;-61
2021/04/30 15:13:56;;;;;;;7.37;6.47;;;;;;;16.98;50.05;99718.91;2807750;84;21677;-61
2021/04/30 15:18:00;;;;;;;6.85;6.15;;;;;;;16.97;50.07;99717.70;2813017;84;21120;-61
2021/04/30 15:22:06;;;;;;;8.95;7.08;;;;;;;16.94;51.85;99709.52;2815891;84;21112;-61
2021/04/30 15:26:11;;;;;;;7.97;7.10;;;;;;;16.91;50.24;99713.92;2809091;84;21173;-60
2021/04/30 15:30:16;;;;;;;9.83;8.83;;;;;;;16.95;49.46;99721.94;2780763;84;21086;-61
2021/04/30 15:34:19;;;;;;;10.38;9.30;;;;;;;16.93;51.19;99728.00;2714093;87;21145;-61
2021/04/30 15:38:24;;;;;;;8.18;7.47;;;;;;;16.84;51.33;99735.78;2777927;85;21149;-60
2021/04/30 15:42:30;;;;;;;9.30;8.45;;;;;;;16.74;52.24;99736.03;2780484;85;21141;-61
2021/04/30 15:46:34;;;;;;;11.33;8.30;;;;;;;16.63;51.97;99764.14;2782055;85;21103;-61
2021/04/30 15:50:39;;;;;;;;;;;;;;;16.56;52.69;99753.27;2778357;85;21835;-60
2021/04/30 15:54:42;;;;;;;11.88;9.98;;;;;;;16.50;52.72;99745.09;2711315;87;20210;-60
2021/04/30 15:58:46;;;;;;;10.08;8.50;;;;;;;16.44;53.98;99757.39;2763042;85;21129;-59
2021/04/30 16:02:52;;;;;;;10.93;9.13;;;;;;;16.20;53.03;99744.94;2780020;85;21156;-60
2021/04/30 16:07:04;;;;;;;11.75;10.13;;;;;;;16.00;54.31;99766.84;2781362;85;21108;-60
2021/04/30 16:11:08;;;;;;;12.20;10.32;;;;;;;15.70;55.48;99767.41;2780859;85;21203;-60
2021/04/30 16:15:13;;;;;;;10.65;9.43;;;;;;;15.49;55.47;99759.09;2780555;85;21158;-60
2021/04/30 16:19:17;;;;;;;11.15;9.38;;;;;;;15.19;56.18;99770.84;2767678;85;21152;-60
2021/04/30 16:23:20;;;;;;;15.10;11.30;;;;;;;14.90;56.74;99780.23;2764997;85;21606;-60
2021/04/30 16:27:25;;;;;;;12.58;10.08;;;;;;;14.73;57.10;99786.05;2748665;85;21187;-60
2021/04/30 16:31:29;;;;;;;13.72;10.15;;;;;;;14.65;56.91;99779.67;2735945;85;21145;-60
2021/04/30 16:35:32;;;;;;;22.62;12.40;;;;;;;14.62;57.76;99777.33;2692043;87;21173;-60
2021/04/30 16:39:36;;;;;;;17.52;11.65;;;;;;;14.59;59.52;99777.66;2755374;86;21156;-60
2021/04/30 16:43:39;;;;;;;13.43;11.33;;;;;;;14.55;58.83;99792.38;2745711;85;21600;-60
2021/04/30 16:47:44;;;;;;;19.40;12.63;;;;;;;14.40;59.07;99797.02;2786989;85;21174;-60
2021/04/30 16:51:47;;;;;;;15.68;13.85;;;;;;;14.21;59.07;99803.46;2782386;85;21110;-60
2021/04/30 16:55:51;;;;;;;10.78;9.68;;;;;;;13.98;59.77;99808.05;2767323;85;21144;-60
2021/04/30 16:59:53;;;;;;;15.30;11.55;;;;;;;13.80;60.58;99813.48;2781737;84;21149;-60
2021/04/30 17:03:56;;;;;;;14.65;12.47;;;;;;;13.70;61.28;99806.91;2786372;84;21145;-60
2021/04/30 17:08:03;;;;;;;13.10;11.78;;;;;;;13.68;62.33;99804.05;2742046;85;21180;-60
2021/04/30 17:12:08;;;;;;;14.47;11.08;;;;;;;13.61;63.19;99803.02;2746453;85;21200;-60
2021/04/30 17:16:11;;;;;;;13.48;11.15;;;;;;;13.53;63.54;99813.97;2741628;86;21172;-60
2021/04/30 17:20:16;;;;;;;9.80;8.05;;;;;;;13.40;64.29;99821.55;2722197;86;21255;-60
2021/04/30 17:24:33;;;;;;;11.23;8.67;;;;;;;13.24;64.46;99827.09;2735641;85;21615;-60
2021/04/30 17:28:43;;;;;;;12.65;9.03;;;;;;;13.13;65.25;99843.34;2781517;84;21097;-61
2021/04/30 17:33:01;;;;;;;11.85;10.03;;;;;;;12.96;65.42;99853.87;2730646;85;21141;-59
2021/04/30 17:37:10;;;;;;;12.50;8.83;;;;;;;12.79;65.57;99857.39;2763050;85;21183;-58
2021/04/30 17:41:32;;;;;;;16.70;13.08;;;;;;;12.60;65.98;99861.86;2769291;86;21182;-58
2021/04/30 17:45:43;;;;;;;12.50;10.80;;;;;;;12.46;66.58;99867.69;2769145;86;21170;-60
2021/04/30 17:49:59;;;;;;;12.05;8.33;;;;;;;12.32;67.07;99869.02;2757358;86;21105;-60
2021/04/30 17:54:10;;;;;;;12.25;7.95;;;;;;;12.19;67.50;99876.86;2753061;85;21224;-59
2021/04/30 17:58:15;;;;;;;14.07;11.80;;;;;;;12.06;68.18;99875.00;2750444;85;21614;-60
2021/04/30 18:02:52;;;;;;;9.13;7.85;;;;;;;11.93;68.36;99873.96;2769976;85;21121;-60
2021/04/30 18:06:58;;;;;;;17.48;15.63;;;;;;;11.79;68.84;99886.78;2741939;86;21595;-59
2021/04/30 18:11:02;;;;;;;16.30;10.13;;;;;;;11.72;69.18;99889.65;2743530;85;21141;-59
2021/04/30 18:15:39;;;;;;;42.83;33.95;;;;;;;11.65;69.42;99893.87;2755357;86;21578;-60
2021/04/30 18:19:42;;;;;;;51.50;45.70;;;;;;;11.58;69.60;99902.41;2744698;85;21161;-60
2021/04/30 18:24:20;;;;;;;38.28;34.43;;;;;;;11.51;69.93;99902.64;2741414;86;21137;-60
2021/04/30 18:28:23;;;;;;;120.13;106.47;;;;;;;11.47;70.10;99904.39;2745658;85;21161;-59
2021/04/30 18:33:05;;;;;;;136.68;121.85;;;;;;;11.38;70.26;99901.61;2755660;85;21212;-59
2021/04/30 18:37:09;;;;;;;70.20;59.13;;;;;;;11.31;70.53;99897.84;2740179;86;21594;-60
2021/04/30 18:41:49;;;;;;;27.50;22.05;;;;;;;11.25;70.91;99892.57;2747684;85;21185;-60
2021/04/30 18:45:56;;;;;;;13.50;10.72;;;;;;;11.24;71.11;99898.02;2750192;86;21180;-60
2021/04/30 18:50:06;;;;;;;10.30;8.78;;;;;;;11.27;71.44;99906.58;2744835;85;21122;-60
2021/04/30 18:54:38;;;;;;;14.25;9.30;;;;;;;11.31;71.57;99908.95;2746637;86;21160;-60
2021/04/30 18:58:50;;;;;;;10.82;8.53;;;;;;;11.34;71.69;99904.68;2724953;87;21128;-59
2021/04/30 19:03:21;;;;;;;19.50;9.88;;;;;;;11.43;71.76;99920.66;2735821;85;21092;-59
2021/04/30 19:08:00;;;;;;;13.55;10.03;;;;;;;11.53;72.01;99924.65;2774846;85;21139;-58
2021/04/30 19:16:45;;;;;;;13.60;10.20;;;;;;;11.75;71.91;99929.33;2775311;85;21124;-58